createdAt,value
2023-02-14T00:00:01.993Z,102843.25
2023-02-14T00:01:12.908Z,102835.19
2023-02-14T00:02:15.146Z,102837.69
2023-02-14T00:03:17.408Z,102831.34
2023-02-14T00:04:20.350Z,102841.19
2023-02-14T00:05:22.660Z,102838.22
2023-02-14T00:06:24.852Z,102835.34
2023-02-14T00:07:27.552Z,102841.56
2023-02-14T00:08:29.770Z,102828.13
2023-02-14T00:09:32.633Z,102836.88
2023-02-14T00:10:35.041Z,102832.50
2023-02-14T00:11:37.499Z,102837.69
2023-02-14T00:12:39.992Z,102835.81
2023-02-14T00:14:02.283Z,102838.66
2023-02-14T00:15:22.786Z,102831.44
2023-02-14T00:16:25.299Z,102833.94
2023-02-14T00:17:28.225Z,102833.00
2023-02-14T00:18:48.943Z,102830.50
2023-02-14T00:19:51.212Z,102841.28
2023-02-14T00:20:53.446Z,102840.50
2023-02-14T00:21:55.643Z,102829.84
2023-02-14T00:22:58.036Z,102834.94
2023-02-14T00:24:00.353Z,102842.06
2023-02-14T00:25:02.789Z,102835.03
2023-02-14T00:26:05.707Z,102837.00
2023-02-14T00:27:08.293Z,102843.31
2023-02-14T00:28:10.770Z,102829.22
2023-02-14T00:29:16.207Z,102828.97
2023-02-14T00:30:18.710Z,102834.94
2023-02-14T00:31:21.178Z,102830.31
2023-02-14T00:32:24.134Z,102836.47
2023-02-14T00:33:29.206Z,102836.72
2023-02-14T00:34:33.364Z,102837.84
2023-02-14T00:35:38.171Z,102833.56
2023-02-14T00:36:40.602Z,102836.22
2023-02-14T00:37:43.101Z,102834.59
2023-02-14T00:38:45.455Z,102839.13
2023-02-14T00:39:47.723Z,102842.25
2023-02-14T00:40:49.973Z,102841.97
2023-02-14T00:41:53.219Z,102842.81
2023-02-14T00:42:55.429Z,102840.84
2023-02-14T00:43:58.300Z,102846.31
2023-02-14T00:45:00.764Z,102842.03
2023-02-14T00:46:03.248Z,102841.31
2023-02-14T00:47:05.660Z,102846.59
2023-02-14T00:48:07.918Z,102848.22
2023-02-14T00:49:11.004Z,102846.31
2023-02-14T00:50:13.524Z,102839.88
2023-02-14T00:51:16.293Z,102845.94
2023-02-14T00:52:18.908Z,102847.03
2023-02-14T00:53:21.410Z,102831.31
2023-02-14T00:54:23.661Z,102836.72
2023-02-14T00:55:26.220Z,102834.00
2023-02-14T00:56:28.542Z,102832.06
2023-02-14T00:57:30.982Z,102828.63
2023-02-14T00:58:33.426Z,102828.63
2023-02-14T00:59:35.651Z,102830.56
2023-02-14T01:00:39.566Z,102833.38
2023-02-14T01:01:42.159Z,102826.56
2023-02-14T01:02:45.198Z,102826.72
2023-02-14T01:03:48.191Z,102828.56
2023-02-14T01:04:50.436Z,102825.91
2023-02-14T01:05:53.539Z,102832.22
2023-02-14T01:06:55.770Z,102834.03
2023-02-14T01:07:58.150Z,102838.53
2023-02-14T01:09:00.546Z,102823.44
2023-02-14T01:10:02.838Z,102832.41
2023-02-14T01:11:11.959Z,102831.50
2023-02-14T01:12:14.431Z,102833.38
2023-02-14T01:13:18.463Z,102828.88
2023-02-14T01:14:20.821Z,102830.63
2023-02-14T01:15:25.132Z,102829.78
2023-02-14T01:16:28.940Z,102820.94
2023-02-14T01:17:31.213Z,102824.53
2023-02-14T01:18:33.544Z,102830.78
2023-02-14T01:19:36.891Z,102823.66
2023-02-14T01:20:39.917Z,102817.34
2023-02-14T01:21:42.196Z,102822.63
2023-02-14T01:22:44.435Z,102817.25
2023-02-14T01:23:48.886Z,102819.06
2023-02-14T01:24:53.197Z,102818.81
2023-02-14T01:25:55.473Z,102814.25
2023-02-14T01:26:57.877Z,102816.91
2023-02-14T01:28:00.949Z,102815.22
2023-02-14T01:29:04.854Z,102816.94
2023-02-14T01:30:08.350Z,102816.78
2023-02-14T01:31:15.479Z,102817.75
2023-02-14T01:32:18.061Z,102822.69
2023-02-14T01:33:20.298Z,102812.91
2023-02-14T01:34:22.999Z,102813.81
2023-02-14T01:35:25.355Z,102808.56
2023-02-14T01:36:33.963Z,102805.97
2023-02-14T01:37:36.671Z,102805.25
2023-02-14T01:38:38.888Z,102808.88
2023-02-14T01:39:41.486Z,102804.53
2023-02-14T01:40:44.283Z,102812.59
2023-02-14T01:41:50.583Z,102804.59
2023-02-14T01:42:53.070Z,102809.06
2023-02-14T01:43:59.963Z,102805.41
2023-02-14T01:45:04.180Z,102800.88
2023-02-14T01:46:10.917Z,102800.09
2023-02-14T01:47:15.727Z,102801.91
2023-02-14T01:48:22.877Z,102801.09
2023-02-14T01:49:32.592Z,102795.75
2023-02-14T01:50:40.941Z,102790.84
2023-02-14T01:51:47.996Z,102800.47
2023-02-14T01:53:06.392Z,102788.16
2023-02-14T01:54:12.865Z,102794.47
2023-02-14T01:55:24.532Z,102798.19
2023-02-14T01:56:51.510Z,102790.22
2023-02-14T01:58:02.788Z,102796.44
2023-02-14T01:59:07.958Z,102794.72
2023-02-14T02:00:29.961Z,102789.34
2023-02-14T02:01:32.397Z,102790.09
2023-02-14T02:02:37.449Z,102794.53
2023-02-14T02:03:55.736Z,102791.88
2023-02-14T02:04:58.279Z,102790.94
2023-02-14T02:06:11.065Z,102793.66
2023-02-14T02:07:19.225Z,102791.69
2023-02-14T02:08:21.722Z,102800.66
2023-02-14T02:09:32.705Z,102794.53
2023-02-14T02:10:35.150Z,102796.47
2023-02-14T02:11:38.169Z,102800.72
2023-02-14T02:12:40.831Z,102794.41
2023-02-14T02:13:43.226Z,102797.13
2023-02-14T02:14:47.315Z,102799.03
2023-02-14T02:16:06.886Z,102801.75
2023-02-14T02:17:35.198Z,102799.16
2023-02-14T02:19:06.157Z,102792.09
2023-02-14T02:20:30.438Z,102799.31
2023-02-14T02:21:53.885Z,102799.47
2023-02-14T02:22:58.893Z,102799.44
2023-02-14T02:24:13.882Z,102796.75
2023-02-14T02:25:44.775Z,102801.19
2023-02-14T02:27:26.197Z,102789.63
2023-02-14T02:28:52.977Z,102793.16
2023-02-14T02:30:22.547Z,102790.47
2023-02-14T02:32:01.756Z,102795.91
2023-02-14T02:33:45.530Z,102790.56
2023-02-14T02:35:26.913Z,102790.44
2023-02-14T02:36:41.221Z,102797.50
2023-02-14T02:38:07.218Z,102792.25
2023-02-14T02:39:21.512Z,102789.50
2023-02-14T02:40:41.354Z,102787.69
2023-02-14T02:41:52.408Z,102789.44
2023-02-14T02:43:25.350Z,102793.09
2023-02-14T02:44:46.000Z,102791.28
2023-02-14T02:46:39.120Z,102792.25
2023-02-14T02:48:05.084Z,102794.84
2023-02-14T02:49:36.883Z,102793.00
2023-02-14T02:51:07.772Z,102798.19
2023-02-14T02:52:42.094Z,102790.91
2023-02-14T02:53:52.202Z,102794.38
2023-02-14T02:55:05.589Z,102792.72
2023-02-14T02:56:46.002Z,102795.38
2023-02-14T02:57:51.255Z,102788.94
2023-02-14T02:58:58.721Z,102796.00
2023-02-14T03:00:05.055Z,102797.50
2023-02-14T03:01:11.465Z,102802.91
2023-02-14T03:02:23.234Z,102790.47
2023-02-14T03:03:47.406Z,102799.34
2023-02-14T03:04:56.455Z,102795.47
2023-02-14T03:06:00.872Z,102802.97
2023-02-14T03:07:23.976Z,102800.09
2023-02-14T03:08:26.223Z,102798.16
2023-02-14T03:09:29.066Z,102800.06
2023-02-14T03:10:35.996Z,102802.94
2023-02-14T03:11:49.096Z,102802.97
2023-02-14T03:13:06.912Z,102795.59
2023-02-14T03:14:45.769Z,102801.16
2023-02-14T03:16:25.615Z,102803.03
2023-02-14T03:18:08.976Z,102806.53
2023-02-14T03:19:48.435Z,102810.31
2023-02-14T03:21:21.217Z,102808.34
2023-02-14T03:22:29.235Z,102805.72
2023-02-14T03:23:38.827Z,102804.97
2023-02-14T03:24:54.691Z,102800.78
2023-02-14T03:26:18.165Z,102808.66
2023-02-14T03:27:28.685Z,102803.34
2023-02-14T03:28:46.461Z,102799.03
2023-02-14T03:30:20.372Z,102803.34
2023-02-14T03:31:40.518Z,102802.31
2023-02-14T03:32:49.889Z,102801.41
2023-02-14T03:34:21.301Z,102805.06
2023-02-14T03:36:02.387Z,102807.19
2023-02-14T03:37:22.920Z,102798.31
2023-02-14T03:38:34.656Z,102803.53
2023-02-14T03:39:57.800Z,102811.75
2023-02-14T03:41:07.244Z,102808.34
2023-02-14T03:42:17.327Z,102805.84
2023-02-14T03:43:25.378Z,102808.69
2023-02-14T03:44:31.014Z,102800.78
2023-02-14T03:45:47.690Z,102800.66
2023-02-14T03:46:58.107Z,102798.00
2023-02-14T03:48:05.955Z,102801.50
2023-02-14T03:49:16.375Z,102801.50
2023-02-14T03:50:20.185Z,102806.44
2023-02-14T03:51:24.598Z,102800.16
2023-02-14T03:52:29.638Z,102799.59
2023-02-14T03:53:35.694Z,102798.44
2023-02-14T03:54:38.639Z,102801.50
2023-02-14T03:55:47.786Z,102795.34
2023-02-14T03:56:56.655Z,102799.56
2023-02-14T03:58:09.936Z,102792.22
2023-02-14T03:59:19.010Z,102802.69
2023-02-14T04:00:21.458Z,102794.22
2023-02-14T04:01:48.393Z,102794.66
2023-02-14T04:02:57.241Z,102802.91
2023-02-14T04:04:00.676Z,102803.53
2023-02-14T04:05:09.889Z,102809.22
2023-02-14T04:06:12.224Z,102798.16
2023-02-14T04:07:17.338Z,102806.31
2023-02-14T04:08:29.060Z,102803.97
2023-02-14T04:09:31.300Z,102807.66
2023-02-14T04:10:34.068Z,102804.16
2023-02-14T04:11:38.544Z,102812.94
2023-02-14T04:12:41.089Z,102813.69
2023-02-14T04:13:43.462Z,102808.56
2023-02-14T04:14:45.772Z,102804.41
2023-02-14T04:15:48.214Z,102801.75
2023-02-14T04:17:09.283Z,102799.88
2023-02-14T04:18:30.115Z,102808.72
2023-02-14T04:19:32.377Z,102810.16
2023-02-14T04:20:34.862Z,102803.78
2023-02-14T04:21:37.084Z,102809.94
2023-02-14T04:22:39.541Z,102808.44
2023-02-14T04:23:41.941Z,102797.94
2023-02-14T04:24:44.294Z,102797.00
2023-02-14T04:25:46.555Z,102799.38
2023-02-14T04:27:09.869Z,102795.09
2023-02-14T04:28:13.409Z,102792.59
2023-02-14T04:29:15.968Z,102791.88
2023-02-14T04:30:20.786Z,102787.56
2023-02-14T04:31:23.330Z,102789.38
2023-02-14T04:32:25.809Z,102790.34
2023-02-14T04:33:28.294Z,102786.00
2023-02-14T04:34:30.560Z,102787.75
2023-02-14T04:35:33.002Z,102787.84
2023-02-14T04:36:35.327Z,102785.97
2023-02-14T04:37:37.866Z,102781.50
2023-02-14T04:38:40.545Z,102778.88
2023-02-14T04:39:42.792Z,102784.16
2023-02-14T04:40:45.237Z,102779.72
2023-02-14T04:41:47.510Z,102774.47
2023-02-14T04:42:50.032Z,102779.84
2023-02-14T04:43:52.428Z,102777.41
2023-02-14T04:44:54.693Z,102772.22
2023-02-14T04:45:57.239Z,102768.59
2023-02-14T04:47:00.073Z,102771.19
2023-02-14T04:48:02.537Z,102772.00
2023-02-14T04:49:05.178Z,102765.81
2023-02-14T04:50:08.338Z,102769.44
2023-02-14T04:51:10.699Z,102758.84
2023-02-14T04:52:13.266Z,102761.56
2023-02-14T04:53:15.716Z,102759.88
2023-02-14T04:54:17.937Z,102765.88
2023-02-14T04:55:20.179Z,102762.31
2023-02-14T04:56:22.594Z,102766.81
2023-02-14T04:57:24.869Z,102758.72
2023-02-14T04:58:27.331Z,102765.53
2023-02-14T04:59:29.743Z,102769.84
2023-02-14T05:00:32.124Z,102763.81
2023-02-14T05:01:34.608Z,102755.06
2023-02-14T05:02:37.605Z,102767.38
2023-02-14T05:03:40.020Z,102761.88
2023-02-14T05:04:42.310Z,102762.72
2023-02-14T05:05:44.562Z,102764.25
2023-02-14T05:06:47.186Z,102761.56
2023-02-14T05:07:49.613Z,102759.03
2023-02-14T05:08:51.893Z,102754.75
2023-02-14T05:09:54.237Z,102758.41
2023-02-14T05:10:56.881Z,102750.50
2023-02-14T05:11:59.360Z,102753.31
2023-02-14T05:13:02.041Z,102757.91
2023-02-14T05:14:04.689Z,102755.28
2023-02-14T05:15:07.178Z,102754.31
2023-02-14T05:16:09.508Z,102752.03
2023-02-14T05:17:11.773Z,102753.66
2023-02-14T05:18:14.266Z,102752.69
2023-02-14T05:19:16.707Z,102763.66
2023-02-14T05:20:19.190Z,102753.91
2023-02-14T05:21:21.678Z,102759.06
2023-02-14T05:22:23.880Z,102753.41
2023-02-14T05:23:26.345Z,102756.00
2023-02-14T05:24:28.778Z,102755.81
2023-02-14T05:25:31.600Z,102754.78
2023-02-14T05:26:34.003Z,102750.28
2023-02-14T05:27:36.316Z,102752.06
2023-02-14T05:28:41.091Z,102753.88
2023-02-14T05:29:43.740Z,102756.66
2023-02-14T05:30:46.412Z,102752.03
2023-02-14T05:31:48.976Z,102751.00
2023-02-14T05:32:51.228Z,102751.94
2023-02-14T05:33:53.485Z,102745.03
2023-02-14T05:34:56.096Z,102752.28
2023-02-14T05:36:03.665Z,102748.72
2023-02-14T05:37:06.099Z,102756.63
2023-02-14T05:38:08.480Z,102746.50
2023-02-14T05:39:14.631Z,102749.13
2023-02-14T05:40:17.213Z,102751.94
2023-02-14T05:41:19.614Z,102749.56
2023-02-14T05:42:21.851Z,102749.88
2023-02-14T05:43:24.317Z,102755.16
2023-02-14T05:44:26.605Z,102749.84
2023-02-14T05:45:28.888Z,102758.91
2023-02-14T05:46:31.156Z,102762.47
2023-02-14T05:47:33.434Z,102757.16
2023-02-14T05:48:35.890Z,102757.13
2023-02-14T05:49:38.305Z,102766.88
2023-02-14T05:50:42.535Z,102759.69
2023-02-14T05:51:44.978Z,102759.41
2023-02-14T05:52:47.208Z,102759.66
2023-02-14T05:53:49.664Z,102762.16
2023-02-14T05:54:52.115Z,102759.22
2023-02-14T05:55:54.373Z,102762.78
2023-02-14T05:56:56.818Z,102764.63
2023-02-14T05:57:59.032Z,102761.84
2023-02-14T05:59:01.460Z,102761.88
2023-02-14T06:00:08.257Z,102764.00
2023-02-14T06:01:16.356Z,102762.84
2023-02-14T06:02:18.803Z,102763.69
2023-02-14T06:03:21.037Z,102765.06
2023-02-14T06:04:23.542Z,102761.88
2023-02-14T06:05:27.291Z,102757.19
2023-02-14T06:06:29.513Z,102770.56
2023-02-14T06:07:31.983Z,102769.06
2023-02-14T06:08:34.724Z,102771.41
2023-02-14T06:09:36.972Z,102759.91
2023-02-14T06:10:39.629Z,102760.88
2023-02-14T06:11:42.003Z,102766.44
2023-02-14T06:12:45.087Z,102766.31
2023-02-14T06:13:47.324Z,102774.00
2023-02-14T06:14:49.740Z,102770.16
2023-02-14T06:15:52.054Z,102772.81
2023-02-14T06:16:54.493Z,102774.53
2023-02-14T06:17:57.801Z,102773.94
2023-02-14T06:19:00.019Z,102780.25
2023-02-14T06:20:02.464Z,102782.97
2023-02-14T06:21:04.938Z,102782.91
2023-02-14T06:22:07.147Z,102782.22
2023-02-14T06:23:09.438Z,102780.66
2023-02-14T06:24:11.884Z,102787.09
2023-02-14T06:25:14.298Z,102786.25
2023-02-14T06:26:16.542Z,102779.19
2023-02-14T06:27:18.760Z,102777.41
2023-02-14T06:28:21.000Z,102786.22
2023-02-14T06:29:23.720Z,102780.84
2023-02-14T06:30:26.694Z,102781.88
2023-02-14T06:31:29.436Z,102784.69
2023-02-14T06:32:31.712Z,102779.25
2023-02-14T06:33:33.963Z,102769.69
2023-02-14T06:34:36.522Z,102779.59
2023-02-14T06:35:38.897Z,102780.59
2023-02-14T06:36:41.162Z,102779.44
2023-02-14T06:37:45.437Z,102785.75
2023-02-14T06:38:48.543Z,102779.66
2023-02-14T06:39:50.972Z,102782.13
2023-02-14T06:40:53.242Z,102790.84
2023-02-14T06:41:55.441Z,102778.97
2023-02-14T06:42:57.825Z,102784.13
2023-02-14T06:43:59.992Z,102784.09
2023-02-14T06:45:02.787Z,102785.88
2023-02-14T06:46:05.510Z,102786.00
2023-02-14T06:47:08.548Z,102786.88
2023-02-14T06:48:11.129Z,102789.44
2023-02-14T06:49:13.345Z,102785.94
2023-02-14T06:50:15.662Z,102780.53
2023-02-14T06:51:18.320Z,102776.06
2023-02-14T06:52:20.510Z,102790.25
2023-02-14T06:53:22.915Z,102787.38
2023-02-14T06:54:35.628Z,102786.56
2023-02-14T06:55:37.775Z,102792.97
2023-02-14T06:56:40.356Z,102790.38
2023-02-14T06:57:42.559Z,102791.34
2023-02-14T06:58:44.958Z,102791.50
2023-02-14T06:59:47.150Z,102789.78
2023-02-14T07:00:49.751Z,102783.66
2023-02-14T07:01:52.762Z,102785.41
2023-02-14T07:02:55.207Z,102789.00
2023-02-14T07:03:57.384Z,102792.31
2023-02-14T07:04:59.808Z,102793.03
2023-02-14T07:06:02.040Z,102787.56
2023-02-14T07:07:05.228Z,102784.22
2023-02-14T07:08:08.174Z,102781.94
2023-02-14T07:09:10.399Z,102781.41
2023-02-14T07:10:13.076Z,102785.06
2023-02-14T07:11:15.589Z,102786.25
2023-02-14T07:12:17.799Z,102791.41
2023-02-14T07:13:19.961Z,102791.97
2023-02-14T07:14:22.125Z,102792.47
2023-02-14T07:15:27.538Z,102789.72
2023-02-14T07:16:29.772Z,102788.59
2023-02-14T07:17:32.546Z,102789.50
2023-02-14T07:18:34.716Z,102786.72
2023-02-14T07:19:36.890Z,102787.91
2023-02-14T07:20:39.102Z,102786.22
2023-02-14T07:21:41.432Z,102782.91
2023-02-14T07:22:44.338Z,102784.06
2023-02-14T07:23:47.805Z,102787.00
2023-02-14T07:24:49.979Z,102784.72
2023-02-14T07:25:52.384Z,102781.22
2023-02-14T07:26:54.766Z,102789.50
2023-02-14T07:27:57.057Z,102783.03
2023-02-14T07:28:59.458Z,102790.03
2023-02-14T07:30:01.925Z,102796.34
2023-02-14T07:31:04.680Z,102784.50
2023-02-14T07:32:07.364Z,102789.44
2023-02-14T07:33:09.658Z,102783.16
2023-02-14T07:34:12.045Z,102774.19
2023-02-14T07:35:15.299Z,102785.91
2023-02-14T07:36:18.103Z,102784.13
2023-02-14T07:37:20.742Z,102779.88
2023-02-14T07:38:23.072Z,102779.16
2023-02-14T07:39:25.245Z,102779.22
2023-02-14T07:40:29.844Z,102783.72
2023-02-14T07:41:32.212Z,102791.69
2023-02-14T07:42:34.780Z,102780.44
2023-02-14T07:43:37.106Z,102785.97
2023-02-14T07:44:39.493Z,102785.22
2023-02-14T07:45:41.662Z,102776.28
2023-02-14T07:46:43.829Z,102782.59
2023-02-14T07:47:49.304Z,102783.59
2023-02-14T07:48:52.060Z,102782.59
2023-02-14T07:49:54.279Z,102778.97
2023-02-14T07:50:57.849Z,102775.38
2023-02-14T07:52:00.370Z,102779.59
2023-02-14T07:53:02.691Z,102776.66
2023-02-14T07:54:04.872Z,102779.41
2023-02-14T07:55:07.777Z,102780.25
2023-02-14T07:56:10.126Z,102776.63
2023-02-14T07:57:12.324Z,102783.03
2023-02-14T07:58:14.712Z,102786.78
2023-02-14T07:59:16.968Z,102786.09
2023-02-14T08:00:19.651Z,102787.97
2023-02-14T08:01:22.208Z,102776.56
2023-02-14T08:02:24.393Z,102786.44
2023-02-14T08:03:26.747Z,102787.44
2023-02-14T08:04:29.213Z,102783.91
2023-02-14T08:05:31.499Z,102786.56
2023-02-14T08:06:33.941Z,102782.78
2023-02-14T08:07:36.489Z,102787.16
2023-02-14T08:08:38.717Z,102778.94
2023-02-14T08:09:40.929Z,102782.38
2023-02-14T08:10:43.102Z,102790.22
2023-02-14T08:12:03.857Z,102788.28
2023-02-14T08:13:06.472Z,102787.38
2023-02-14T08:14:08.599Z,102791.72
2023-02-14T08:15:29.681Z,102792.34
2023-02-14T08:16:34.297Z,102792.31
2023-02-14T08:17:36.755Z,102797.41
2023-02-14T08:18:40.743Z,102800.19
2023-02-14T08:19:42.997Z,102794.66
2023-02-14T08:20:46.783Z,102791.06
2023-02-14T08:21:48.946Z,102802.53
2023-02-14T08:22:51.322Z,102797.47
2023-02-14T08:23:53.809Z,102796.03
2023-02-14T08:24:55.949Z,102799.97
2023-02-14T08:25:58.559Z,102794.06
2023-02-14T08:27:00.767Z,102799.50
2023-02-14T08:28:04.241Z,102803.88
2023-02-14T08:29:06.802Z,102799.56
2023-02-14T08:30:09.817Z,102799.66
2023-02-14T08:31:12.569Z,102794.28
2023-02-14T08:32:15.949Z,102781.78
2023-02-14T08:33:18.657Z,102793.25
2023-02-14T08:34:21.220Z,102792.28
2023-02-14T08:35:25.776Z,102787.19
2023-02-14T08:36:28.409Z,102790.53
2023-02-14T08:37:30.818Z,102791.34
2023-02-14T08:38:33.126Z,102790.16
2023-02-14T08:39:35.517Z,102796.53
2023-02-14T08:40:37.719Z,102791.56
2023-02-14T08:41:40.141Z,102800.50
2023-02-14T08:42:42.323Z,102798.66
2023-02-14T08:43:45.091Z,102808.22
2023-02-14T08:44:47.632Z,102801.19
2023-02-14T08:45:53.112Z,102802.16
2023-02-14T08:46:55.441Z,102800.44
2023-02-14T08:48:08.095Z,102800.09
2023-02-14T08:49:10.916Z,102799.97
2023-02-14T08:50:16.598Z,102807.75
2023-02-14T08:51:19.233Z,102797.25
2023-02-14T08:52:21.401Z,102806.81
2023-02-14T08:53:23.813Z,102811.22
2023-02-14T08:54:26.174Z,102813.97
2023-02-14T08:55:28.434Z,102806.22
2023-02-14T08:56:30.990Z,102806.19
2023-02-14T08:57:33.607Z,102817.63
2023-02-14T08:58:36.877Z,102810.41
2023-02-14T08:59:39.325Z,102817.38
2023-02-14T09:00:41.588Z,102814.91
2023-02-14T09:01:43.958Z,102820.34
2023-02-14T09:02:49.939Z,102815.09
2023-02-14T09:03:52.366Z,102825.03
2023-02-14T09:04:54.929Z,102820.16
2023-02-14T09:06:02.362Z,102817.25
2023-02-14T09:07:05.583Z,102820.34
2023-02-14T09:08:07.858Z,102816.00
2023-02-14T09:09:10.339Z,102820.84
2023-02-14T09:10:13.922Z,102814.75
2023-02-14T09:11:24.408Z,102813.94
2023-02-14T09:12:26.745Z,102819.38
2023-02-14T09:13:30.594Z,102818.28
2023-02-14T09:14:37.474Z,102808.59
2023-02-14T09:15:40.401Z,102815.91
2023-02-14T09:16:42.628Z,102807.97
2023-02-14T09:17:45.061Z,102817.66
2023-02-14T09:18:48.297Z,102813.81
2023-02-14T09:19:50.785Z,102819.72
2023-02-14T09:20:53.031Z,102821.25
2023-02-14T09:21:55.224Z,102815.78
2023-02-14T09:22:57.466Z,102831.91
2023-02-14T09:23:59.888Z,102820.38
2023-02-14T09:25:02.583Z,102830.50
2023-02-14T09:26:08.733Z,102823.31
2023-02-14T09:27:11.006Z,102818.94
2023-02-14T09:28:13.536Z,102817.25
2023-02-14T09:29:16.204Z,102819.22
2023-02-14T09:30:18.753Z,102820.03
2023-02-14T09:31:23.455Z,102822.06
2023-02-14T09:32:27.266Z,102822.34
2023-02-14T09:33:47.766Z,102823.13
2023-02-14T09:34:50.287Z,102822.19
2023-02-14T09:35:52.645Z,102828.59
2023-02-14T09:37:13.405Z,102823.53
2023-02-14T09:38:19.197Z,102815.84
2023-02-14T09:39:21.500Z,102818.72
2023-02-14T09:40:25.668Z,102824.00
2023-02-14T09:41:38.706Z,102822.56
2023-02-14T09:43:01.828Z,102819.84
2023-02-14T09:44:22.715Z,102822.41
2023-02-14T09:45:27.641Z,102833.91
2023-02-14T09:46:34.767Z,102830.97
2023-02-14T09:47:55.353Z,102824.50
2023-02-14T09:48:58.690Z,102818.72
2023-02-14T09:50:03.987Z,102832.00
2023-02-14T09:51:13.201Z,102830.81
2023-02-14T09:52:18.446Z,102832.56
2023-02-14T09:53:36.640Z,102831.81
2023-02-14T09:54:42.723Z,102832.72
2023-02-14T09:56:00.729Z,102830.00
2023-02-14T09:57:13.525Z,102831.09
2023-02-14T09:58:21.622Z,102833.22
2023-02-14T09:59:29.561Z,102832.59
2023-02-14T10:00:46.829Z,102828.31
2023-02-14T10:01:55.053Z,102823.69
2023-02-14T10:03:26.030Z,102829.69
2023-02-14T10:04:33.891Z,102827.28
2023-02-14T10:06:03.629Z,102825.00
2023-02-14T10:07:31.512Z,102826.63
2023-02-14T10:08:55.407Z,102824.06
2023-02-14T10:10:23.356Z,102822.50
2023-02-14T10:11:25.852Z,102822.75
2023-02-14T10:12:37.840Z,102819.44
2023-02-14T10:13:47.709Z,102823.84
2023-02-14T10:14:52.763Z,102824.63
2023-02-14T10:16:02.892Z,102823.56
2023-02-14T10:17:17.063Z,102827.78
2023-02-14T10:18:27.712Z,102829.59
2023-02-14T10:19:40.725Z,102826.00
2023-02-14T10:20:46.373Z,102825.84
2023-02-14T10:21:52.257Z,102819.84
2023-02-14T10:23:00.241Z,102819.03
2023-02-14T10:24:14.159Z,102829.91
2023-02-14T10:25:28.388Z,102821.91
2023-02-14T10:26:40.103Z,102832.78
2023-02-14T10:27:46.297Z,102837.34
2023-02-14T10:28:50.593Z,102826.81
2023-02-14T10:29:52.862Z,102822.94
2023-02-14T10:31:13.142Z,102821.31
2023-02-14T10:32:23.756Z,102818.47
2023-02-14T10:33:33.257Z,102809.63
2023-02-14T10:34:41.071Z,102816.97
2023-02-14T10:35:52.506Z,102821.56
2023-02-14T10:37:19.962Z,102815.47
2023-02-14T10:38:36.204Z,102822.25
2023-02-14T10:39:41.581Z,102811.31
2023-02-14T10:41:13.540Z,102815.38
2023-02-14T10:42:31.038Z,102818.19
2023-02-14T10:43:54.688Z,102814.63
2023-02-14T10:45:15.765Z,102811.75
2023-02-14T10:46:41.111Z,102813.25
2023-02-14T10:48:10.618Z,102815.16
2023-02-14T10:49:18.843Z,102814.56
2023-02-14T10:50:31.161Z,102813.50
2023-02-14T10:51:37.846Z,102806.53
2023-02-14T10:52:42.621Z,102816.63
2023-02-14T10:54:03.369Z,102808.56
2023-02-14T10:55:31.530Z,102815.91
2023-02-14T10:56:40.884Z,102814.25
2023-02-14T10:57:47.713Z,102807.50
2023-02-14T10:58:52.233Z,102802.47
2023-02-14T11:00:02.176Z,102799.63
2023-02-14T11:01:14.620Z,102802.47
2023-02-14T11:02:20.932Z,102801.72
2023-02-14T11:03:24.405Z,102804.47
2023-02-14T11:04:27.318Z,102804.28
2023-02-14T11:05:41.274Z,102799.13
2023-02-14T11:06:43.735Z,102809.97
2023-02-14T11:07:45.978Z,102805.63
2023-02-14T11:08:48.206Z,102793.63
2023-02-14T11:09:50.445Z,102803.16
2023-02-14T11:11:14.844Z,102796.72
2023-02-14T11:12:39.140Z,102799.22
2023-02-14T11:13:41.826Z,102797.31
2023-02-14T11:14:44.207Z,102798.06
2023-02-14T11:15:50.831Z,102795.69
2023-02-14T11:16:54.577Z,102794.97
2023-02-14T11:18:21.909Z,102796.91
2023-02-14T11:19:38.770Z,102794.25
2023-02-14T11:20:40.959Z,102791.59
2023-02-14T11:21:45.670Z,102799.53
2023-02-14T11:22:48.518Z,102794.16
2023-02-14T11:23:51.354Z,102786.22
2023-02-14T11:25:06.963Z,102790.59
2023-02-14T11:26:16.514Z,102789.00
2023-02-14T11:27:20.441Z,102784.75
2023-02-14T11:28:22.937Z,102786.31
2023-02-14T11:29:35.668Z,102783.84
2023-02-14T11:30:45.598Z,102790.22
2023-02-14T11:31:48.375Z,102786.75
2023-02-14T11:32:56.481Z,102777.44
2023-02-14T11:33:59.847Z,102779.31
2023-02-14T11:35:07.100Z,102786.56
2023-02-14T11:36:13.247Z,102783.97
2023-02-14T11:37:31.845Z,102780.50
2023-02-14T11:38:38.166Z,102778.06
2023-02-14T11:39:40.365Z,102782.50
2023-02-14T11:40:42.573Z,102773.44
2023-02-14T11:41:53.874Z,102784.31
2023-02-14T11:43:13.384Z,102787.81
2023-02-14T11:44:23.053Z,102778.97
2023-02-14T11:45:35.005Z,102786.06
2023-02-14T11:46:52.343Z,102787.88
2023-02-14T11:48:37.183Z,102788.06
2023-02-14T11:49:40.506Z,102781.75
2023-02-14T11:50:45.379Z,102775.53
2023-02-14T11:51:48.028Z,102771.88
2023-02-14T11:52:56.857Z,102771.69
2023-02-14T11:54:04.880Z,102764.34
2023-02-14T11:55:07.269Z,102764.31
2023-02-14T11:56:09.866Z,102772.34
2023-02-14T11:57:21.876Z,102767.06
2023-02-14T11:58:54.332Z,102766.44
2023-02-14T11:59:58.045Z,102770.97
2023-02-14T12:01:02.028Z,102764.81
2023-02-14T12:02:27.910Z,102769.22
2023-02-14T12:03:44.677Z,102759.34
2023-02-14T12:04:50.288Z,102762.59
2023-02-14T12:05:57.196Z,102756.91
2023-02-14T12:07:19.821Z,102749.91
2023-02-14T12:08:28.168Z,102752.88
2023-02-14T12:09:31.747Z,102753.81
2023-02-14T12:10:36.391Z,102757.59
2023-02-14T12:11:38.795Z,102757.75
2023-02-14T12:12:50.587Z,102757.91
2023-02-14T12:13:58.306Z,102758.78
2023-02-14T12:15:35.685Z,102762.31
2023-02-14T12:16:52.062Z,102755.16
2023-02-14T12:18:09.387Z,102753.13
2023-02-14T12:19:28.390Z,102746.97
2023-02-14T12:20:48.059Z,102754.28
2023-02-14T12:21:59.259Z,102740.28
2023-02-14T12:23:16.798Z,102742.84
2023-02-14T12:24:33.662Z,102745.31
2023-02-14T12:25:51.988Z,102750.13
2023-02-14T12:27:06.354Z,102742.13
2023-02-14T12:28:22.570Z,102739.75
2023-02-14T12:29:33.138Z,102737.25
2023-02-14T12:30:35.675Z,102735.59
2023-02-14T12:31:38.372Z,102738.28
2023-02-14T12:32:59.088Z,102728.50
2023-02-14T12:34:03.825Z,102723.34
2023-02-14T12:35:18.715Z,102719.75
2023-02-14T12:36:30.191Z,102728.50
2023-02-14T12:37:41.089Z,102730.25
2023-02-14T12:38:46.239Z,102730.25
2023-02-14T12:39:56.654Z,102729.28
2023-02-14T12:41:28.259Z,102720.56
2023-02-14T12:43:00.129Z,102715.13
2023-02-14T12:44:34.262Z,102707.25
2023-02-14T12:46:04.076Z,102708.22
2023-02-14T12:47:30.801Z,102709.88
2023-02-14T12:49:11.793Z,102714.22
2023-02-14T12:50:29.469Z,102713.47